General Aviation Weather

Text Reports

Enter one or more of the following location identifiers separated by a space:

Zip Code, Four-Character ICAO or Three-Character IATA airport codes.

METAR - Aviation Routine Weather Report
KRAL - Riverside, California
Updated at 9:53 AM GMT on July 28, 2014 (2:53 AM PDT):
METAR KRAL 280953Z AUTO 00000KT 10SM CLR 24/12 A3003 RMK AO2 SLP151 T02440122
TAF - Terminal Area Forecast
KRAL - Riverside, California
Updated at 9:53 AM GMT on July 28, 2014 (2:53 AM PDT):
No TAF is currently available for this location.
Decoded:
No decoded TAF is available.
PIREP - Pilot Weather Report
KRAL - Riverside, California
Updated at 9:53 AM GMT on July 28, 2014 (2:53 AM PDT):
No PIREP is currently available for this location.
AIRMET - Airmens Meteorological Information
KRAL - Riverside, California
Updated at 9:53 AM GMT on July 28, 2014 (2:53 AM PDT):
No AIRMET is currently available for this location.
SIGMET - Significant Meteorological Information
KRAL - Riverside, California
Updated at 9:53 AM GMT on July 28, 2014 (2:53 AM PDT):
No SIGMET is currently available for this location.
NOTAM - Notice to Airmen
KRAL - Riverside, California
Updated at 9:53 AM GMT on July 28, 2014 (2:53 AM PDT):
No NOTAM is currently available for this location.
Forecast Area
KRAL - Riverside, California
Updated at 9:53 AM GMT on July 28, 2014 (2:53 AM PDT):
No NOTAM is currently available for this location.
Aviation Weather Maps